sensor_id;sensor_type;location;lat;lon;timestamp;temperature;humidity
65374;SHT31;52070;53.760;9.678;2022-07-15T00:02:10;13.90;74.91
65374;SHT31;52070;53.760;9.678;2022-07-15T00:04:37;13.88;74.65
65374;SHT31;52070;53.760;9.678;2022-07-15T00:07:05;13.90;75.01
65374;SHT31;52070;53.760;9.678;2022-07-15T00:09:33;13.87;74.79
65374;SHT31;52070;53.760;9.678;2022-07-15T00:12:18;13.87;74.95
65374;SHT31;52070;53.760;9.678;2022-07-15T00:14:46;13.85;75.00
65374;SHT31;52070;53.760;9.678;2022-07-15T00:17:14;13.90;75.32
65374;SHT31;52070;53.760;9.678;2022-07-15T00:19:41;13.84;74.97
65374;SHT31;52070;53.760;9.678;2022-07-15T00:22:09;13.85;75.06
65374;SHT31;52070;53.760;9.678;2022-07-15T00:24:37;13.78;75.12
65374;SHT31;52070;53.760;9.678;2022-07-15T00:27:04;13.75;75.31
65374;SHT31;52070;53.760;9.678;2022-07-15T00:29:31;13.71;75.47
65374;SHT31;52070;53.760;9.678;2022-07-15T00:31:59;13.74;75.37
65374;SHT31;52070;53.760;9.678;2022-07-15T00:34:27;13.73;75.60
65374;SHT31;52070;53.760;9.678;2022-07-15T00:36:54;13.73;75.74
65374;SHT31;52070;53.760;9.678;2022-07-15T00:39:21;13.74;76.03
65374;SHT31;52070;53.760;9.678;2022-07-15T00:41:48;13.77;76.69
65374;SHT31;52070;53.760;9.678;2022-07-15T00:44:15;13.73;76.88
65374;SHT31;52070;53.760;9.678;2022-07-15T00:46:42;13.70;77.09
65374;SHT31;52070;53.760;9.678;2022-07-15T00:49:10;13.62;76.62
65374;SHT31;52070;53.760;9.678;2022-07-15T00:51:41;13.59;76.17
65374;SHT31;52070;53.760;9.678;2022-07-15T00:54:09;13.56;77.13
65374;SHT31;52070;53.760;9.678;2022-07-15T00:56:40;13.50;76.34
65374;SHT31;52070;53.760;9.678;2022-07-15T00:59:08;13.50;76.12
65374;SHT31;52070;53.760;9.678;2022-07-15T01:01:37;13.52;76.13
65374;SHT31;52070;53.760;9.678;2022-07-15T01:04:05;13.49;76.62
65374;SHT31;52070;53.760;9.678;2022-07-15T01:06:32;13.49;75.78
65374;SHT31;52070;53.760;9.678;2022-07-15T01:09:01;13.49;75.57
65374;SHT31;52070;53.760;9.678;2022-07-15T01:11:28;13.46;75.35
65374;SHT31;52070;53.760;9.678;2022-07-15T01:13:56;13.43;74.86
65374;SHT31;52070;53.760;9.678;2022-07-15T01:16:23;13.39;74.83
65374;SHT31;52070;53.760;9.678;2022-07-15T01:18:51;13.38;74.85
65374;SHT31;52070;53.760;9.678;2022-07-15T01:21:19;13.33;75.17
65374;SHT31;52070;53.760;9.678;2022-07-15T01:23:47;13.33;74.99
65374;SHT31;52070;53.760;9.678;2022-07-15T01:26:14;13.33;74.90
65374;SHT31;52070;53.760;9.678;2022-07-15T01:28:41;13.35;74.75
65374;SHT31;52070;53.760;9.678;2022-07-15T01:31:08;13.49;74.31
65374;SHT31;52070;53.760;9.678;2022-07-15T01:33:35;13.49;75.12
65374;SHT31;52070;53.760;9.678;2022-07-15T01:36:05;13.47;75.95
65374;SHT31;52070;53.760;9.678;2022-07-15T01:38:33;13.44;77.91
65374;SHT31;52070;53.760;9.678;2022-07-15T01:41:01;13.29;79.72
65374;SHT31;52070;53.760;9.678;2022-07-15T01:43:28;13.19;80.49
65374;SHT31;52070;53.760;9.678;2022-07-15T01:45:55;12.99;80.86
65374;SHT31;52070;53.760;9.678;2022-07-15T01:48:22;12.79;81.60
65374;SHT31;52070;53.760;9.678;2022-07-15T01:51:07;12.68;82.46
65374;SHT31;52070;53.760;9.678;2022-07-15T01:53:35;12.62;82.75
65374;SHT31;52070;53.760;9.678;2022-07-15T01:56:02;12.58;83.46
65374;SHT31;52070;53.760;9.678;2022-07-15T01:58:29;12.54;83.79
65374;SHT31;52070;53.760;9.678;2022-07-15T02:00:56;12.55;84.09
65374;SHT31;52070;53.760;9.678;2022-07-15T02:03:23;12.55;83.92
65374;SHT31;52070;53.760;9.678;2022-07-15T02:05:50;12.54;84.33
65374;SHT31;52070;53.760;9.678;2022-07-15T02:08:17;12.58;84.40
65374;SHT31;52070;53.760;9.678;2022-07-15T02:10:46;12.57;84.54
65374;SHT31;52070;53.760;9.678;2022-07-15T02:13:13;12.55;84.62
65374;SHT31;52070;53.760;9.678;2022-07-15T02:15:41;12.59;84.68
65374;SHT31;52070;53.760;9.678;2022-07-15T02:18:08;12.58;84.62
65374;SHT31;52070;53.760;9.678;2022-07-15T02:20:37;12.59;85.03
65374;SHT31;52070;53.760;9.678;2022-07-15T02:23:04;12.62;85.14
65374;SHT31;52070;53.760;9.678;2022-07-15T02:25:33;12.62;84.96
65374;SHT31;52070;53.760;9.678;2022-07-15T02:28:03;12.62;84.96
65374;SHT31;52070;53.760;9.678;2022-07-15T02:30:32;12.64;84.87
65374;SHT31;52070;53.760;9.678;2022-07-15T02:33:00;12.59;84.69
65374;SHT31;52070;53.760;9.678;2022-07-15T02:35:27;12.62;84.92
65374;SHT31;52070;53.760;9.678;2022-07-15T02:37:54;12.65;84.70
65374;SHT31;52070;53.760;9.678;2022-07-15T02:40:21;12.65;84.45
65374;SHT31;52070;53.760;9.678;2022-07-15T02:42:50;12.67;84.55
65374;SHT31;52070;53.760;9.678;2022-07-15T02:45:20;12.72;84.38
65374;SHT31;52070;53.760;9.678;2022-07-15T02:47:48;12.69;84.21
65374;SHT31;52070;53.760;9.678;2022-07-15T02:50:16;12.75;83.96
65374;SHT31;52070;53.760;9.678;2022-07-15T02:52:43;12.75;84.00
65374;SHT31;52070;53.760;9.678;2022-07-15T02:55:11;12.81;83.87
65374;SHT31;52070;53.760;9.678;2022-07-15T02:57:39;12.84;83.49
65374;SHT31;52070;53.760;9.678;2022-07-15T03:00:08;12.87;82.20
65374;SHT31;52070;53.760;9.678;2022-07-15T03:02:38;12.95;81.56
65374;SHT31;52070;53.760;9.678;2022-07-15T03:05:06;12.92;81.40
65374;SHT31;52070;53.760;9.678;2022-07-15T03:07:33;12.91;80.93
65374;SHT31;52070;53.760;9.678;2022-07-15T03:10:00;12.93;80.77
65374;SHT31;52070;53.760;9.678;2022-07-15T03:12:27;12.93;80.41
65374;SHT31;52070;53.760;9.678;2022-07-15T03:14:54;12.93;79.92
65374;SHT31;52070;53.760;9.678;2022-07-15T03:17:21;12.95;80.32
65374;SHT31;52070;53.760;9.678;2022-07-15T03:19:50;12.93;80.41
65374;SHT31;52070;53.760;9.678;2022-07-15T03:22:17;12.92;80.21
65374;SHT31;52070;53.760;9.678;2022-07-15T03:24:44;12.91;80.39
65374;SHT31;52070;53.760;9.678;2022-07-15T03:27:11;12.93;80.43
65374;SHT31;52070;53.760;9.678;2022-07-15T03:29:38;12.93;80.31
65374;SHT31;52070;53.760;9.678;2022-07-15T03:32:05;12.99;80.03
65374;SHT31;52070;53.760;9.678;2022-07-15T03:34:32;13.05;80.07
65374;SHT31;52070;53.760;9.678;2022-07-15T03:37:01;13.05;79.55
65374;SHT31;52070;53.760;9.678;2022-07-15T03:39:28;13.03;79.08
65374;SHT31;52070;53.760;9.678;2022-07-15T03:41:55;13.08;78.51
65374;SHT31;52070;53.760;9.678;2022-07-15T03:44:22;13.10;78.30
65374;SHT31;52070;53.760;9.678;2022-07-15T03:46:49;13.18;78.35
65374;SHT31;52070;53.760;9.678;2022-07-15T03:49:16;13.20;77.76
65374;SHT31;52070;53.760;9.678;2022-07-15T03:51:43;13.20;78.17
65374;SHT31;52070;53.760;9.678;2022-07-15T03:54:12;13.20;77.66
65374;SHT31;52070;53.760;9.678;2022-07-15T03:56:39;13.23;77.53
65374;SHT31;52070;53.760;9.678;2022-07-15T03:59:06;13.29;77.14
65374;SHT31;52070;53.760;9.678;2022-07-15T04:01:33;13.27;76.72
65374;SHT31;52070;53.760;9.678;2022-07-15T04:04:01;13.33;76.72
65374;SHT31;52070;53.760;9.678;2022-07-15T04:06:28;13.33;76.42
65374;SHT31;52070;53.760;9.678;2022-07-15T04:08:55;13.38;76.59
65374;SHT31;52070;53.760;9.678;2022-07-15T04:11:23;13.35;76.90
65374;SHT31;52070;53.760;9.678;2022-07-15T04:13:50;13.38;76.00
65374;SHT31;52070;53.760;9.678;2022-07-15T04:16:18;13.47;75.95
65374;SHT31;52070;53.760;9.678;2022-07-15T04:18:45;13.44;76.09
65374;SHT31;52070;53.760;9.678;2022-07-15T04:21:12;13.46;75.61
65374;SHT31;52070;53.760;9.678;2022-07-15T04:23:39;13.52;75.06
65374;SHT31;52070;53.760;9.678;2022-07-15T04:26:06;13.54;74.57
65374;SHT31;52070;53.760;9.678;2022-07-15T04:28:34;13.60;74.90
65374;SHT31;52070;53.760;9.678;2022-07-15T04:31:01;13.62;74.97
65374;SHT31;52070;53.760;9.678;2022-07-15T04:33:28;13.63;74.60
65374;SHT31;52070;53.760;9.678;2022-07-15T04:35:55;13.64;74.83
65374;SHT31;52070;53.760;9.678;2022-07-15T04:38:22;13.70;74.76
65374;SHT31;52070;53.760;9.678;2022-07-15T04:40:49;13.74;74.85
65374;SHT31;52070;53.760;9.678;2022-07-15T04:43:16;13.81;74.36
65374;SHT31;52070;53.760;9.678;2022-07-15T04:45:45;13.81;74.26
65374;SHT31;52070;53.760;9.678;2022-07-15T04:48:13;13.85;74.67
65374;SHT31;52070;53.760;9.678;2022-07-15T04:50:57;13.87;74.80
65374;SHT31;52070;53.760;9.678;2022-07-15T04:53:24;13.81;75.10
65374;SHT31;52070;53.760;9.678;2022-07-15T04:55:51;13.78;75.28
65374;SHT31;52070;53.760;9.678;2022-07-15T04:58:18;13.77;75.97
65374;SHT31;52070;53.760;9.678;2022-07-15T05:00:48;13.75;76.60
65374;SHT31;52070;53.760;9.678;2022-07-15T05:03:15;13.62;77.75
65374;SHT31;52070;53.760;9.678;2022-07-15T05:05:42;13.43;78.35
65374;SHT31;52070;53.760;9.678;2022-07-15T05:08:09;13.35;79.58
65374;SHT31;52070;53.760;9.678;2022-07-15T05:10:36;13.27;80.00
65374;SHT31;52070;53.760;9.678;2022-07-15T05:13:03;13.18;80.55
65374;SHT31;52070;53.760;9.678;2022-07-15T05:15:30;13.03;78.95
65374;SHT31;52070;53.760;9.678;2022-07-15T05:17:58;13.09;79.71
65374;SHT31;52070;53.760;9.678;2022-07-15T05:20:25;13.10;79.69
65374;SHT31;52070;53.760;9.678;2022-07-15T05:22:52;13.19;79.74
65374;SHT31;52070;53.760;9.678;2022-07-15T05:25:20;13.20;79.65
65374;SHT31;52070;53.760;9.678;2022-07-15T05:27:47;13.29;79.82
65374;SHT31;52070;53.760;9.678;2022-07-15T05:30:14;13.36;79.31
65374;SHT31;52070;53.760;9.678;2022-07-15T05:32:42;13.46;79.73
65374;SHT31;52070;53.760;9.678;2022-07-15T05:35:12;13.53;79.25
65374;SHT31;52070;53.760;9.678;2022-07-15T05:37:41;13.62;78.79
65374;SHT31;52070;53.760;9.678;2022-07-15T05:40:09;13.70;78.32
65374;SHT31;52070;53.760;9.678;2022-07-15T05:42:38;13.73;76.71
65374;SHT31;52070;53.760;9.678;2022-07-15T05:45:06;13.77;77.30
65374;SHT31;52070;53.760;9.678;2022-07-15T05:47:34;13.84;76.93
65374;SHT31;52070;53.760;9.678;2022-07-15T05:50:01;13.94;76.49
65374;SHT31;52070;53.760;9.678;2022-07-15T05:52:29;14.00;76.17
65374;SHT31;52070;53.760;9.678;2022-07-15T05:54:56;14.08;76.46
65374;SHT31;52070;53.760;9.678;2022-07-15T05:57:23;14.11;75.95
65374;SHT31;52070;53.760;9.678;2022-07-15T05:59:50;14.18;76.45
65374;SHT31;52070;53.760;9.678;2022-07-15T06:02:17;14.26;76.97
65374;SHT31;52070;53.760;9.678;2022-07-15T06:04:44;14.36;76.82
65374;SHT31;52070;53.760;9.678;2022-07-15T06:07:11;14.41;76.47
65374;SHT31;52070;53.760;9.678;2022-07-15T06:09:40;14.46;75.73
65374;SHT31;52070;53.760;9.678;2022-07-15T06:12:07;14.45;74.97
65374;SHT31;52070;53.760;9.678;2022-07-15T06:14:35;14.48;74.53
65374;SHT31;52070;53.760;9.678;2022-07-15T06:17:02;14.46;73.80
65374;SHT31;52070;53.760;9.678;2022-07-15T06:19:29;14.46;74.27
65374;SHT31;52070;53.760;9.678;2022-07-15T06:21:56;14.51;75.01
65374;SHT31;52070;53.760;9.678;2022-07-15T06:24:23;14.56;74.67
65374;SHT31;52070;53.760;9.678;2022-07-15T06:26:51;14.62;73.15
65374;SHT31;52070;53.760;9.678;2022-07-15T06:29:19;14.64;74.14
65374;SHT31;52070;53.760;9.678;2022-07-15T06:31:46;14.58;74.04
65374;SHT31;52070;53.760;9.678;2022-07-15T06:34:13;14.62;73.71
65374;SHT31;52070;53.760;9.678;2022-07-15T06:36:40;14.59;73.56
65374;SHT31;52070;53.760;9.678;2022-07-15T06:39:08;14.49;73.80
65374;SHT31;52070;53.760;9.678;2022-07-15T06:41:35;14.45;72.60
65374;SHT31;52070;53.760;9.678;2022-07-15T06:44:03;14.45;73.91
65374;SHT31;52070;53.760;9.678;2022-07-15T06:46:31;14.55;72.98
65374;SHT31;52070;53.760;9.678;2022-07-15T06:48:58;14.65;72.48
65374;SHT31;52070;53.760;9.678;2022-07-15T06:51:25;14.78;73.05
65374;SHT31;52070;53.760;9.678;2022-07-15T06:53:52;14.85;70.77
65374;SHT31;52070;53.760;9.678;2022-07-15T06:56:20;14.90;70.48
65374;SHT31;52070;53.760;9.678;2022-07-15T06:58:47;14.96;70.13
65374;SHT31;52070;53.760;9.678;2022-07-15T07:01:15;14.99;69.81
65374;SHT31;52070;53.760;9.678;2022-07-15T07:03:42;15.04;69.76
65374;SHT31;52070;53.760;9.678;2022-07-15T07:06:10;15.00;69.18
65374;SHT31;52070;53.760;9.678;2022-07-15T07:08:37;15.14;70.18
65374;SHT31;52070;53.760;9.678;2022-07-15T07:11:05;15.19;69.05
65374;SHT31;52070;53.760;9.678;2022-07-15T07:13:32;15.29;69.13
65374;SHT31;52070;53.760;9.678;2022-07-15T07:15:59;15.33;67.81
65374;SHT31;52070;53.760;9.678;2022-07-15T07:18:28;15.31;67.60
65374;SHT31;52070;53.760;9.678;2022-07-15T07:20:55;15.37;68.02
65374;SHT31;52070;53.760;9.678;2022-07-15T07:23:23;15.33;68.57
65374;SHT31;52070;53.760;9.678;2022-07-15T07:25:52;15.22;68.89
65374;SHT31;52070;53.760;9.678;2022-07-15T07:28:20;15.00;69.76
65374;SHT31;52070;53.760;9.678;2022-07-15T07:30:47;14.88;70.30
65374;SHT31;52070;53.760;9.678;2022-07-15T07:33:15;14.83;71.03
65374;SHT31;52070;53.760;9.678;2022-07-15T07:35:44;14.82;71.20
65374;SHT31;52070;53.760;9.678;2022-07-15T07:38:11;14.76;71.18
65374;SHT31;52070;53.760;9.678;2022-07-15T07:40:38;14.80;72.54
65374;SHT31;52070;53.760;9.678;2022-07-15T07:43:05;14.89;72.89
65374;SHT31;52070;53.760;9.678;2022-07-15T07:45:32;14.82;73.10
65374;SHT31;52070;53.760;9.678;2022-07-15T07:47:59;14.79;74.04
65374;SHT31;52070;53.760;9.678;2022-07-15T07:50:26;14.98;73.82
65374;SHT31;52070;53.760;9.678;2022-07-15T07:52:55;14.99;73.59
65374;SHT31;52070;53.760;9.678;2022-07-15T07:55:22;14.98;73.67
65374;SHT31;52070;53.760;9.678;2022-07-15T07:57:50;14.98;73.67
65374;SHT31;52070;53.760;9.678;2022-07-15T08:00:17;14.90;73.01
65374;SHT31;52070;53.760;9.678;2022-07-15T08:02:45;15.00;72.82
65374;SHT31;52070;53.760;9.678;2022-07-15T08:05:13;15.16;71.71
65374;SHT31;52070;53.760;9.678;2022-07-15T08:07:41;15.33;70.90
65374;SHT31;52070;53.760;9.678;2022-07-15T08:10:10;15.44;70.06
65374;SHT31;52070;53.760;9.678;2022-07-15T08:12:38;15.60;70.25
65374;SHT31;52070;53.760;9.678;2022-07-15T08:15:08;15.73;68.74
65374;SHT31;52070;53.760;9.678;2022-07-15T08:17:36;15.92;70.33
65374;SHT31;52070;53.760;9.678;2022-07-15T08:20:04;16.12;68.21
65374;SHT31;52070;53.760;9.678;2022-07-15T08:22:33;16.26;67.69
65374;SHT31;52070;53.760;9.678;2022-07-15T08:25:00;16.22;68.64
65374;SHT31;52070;53.760;9.678;2022-07-15T08:27:29;15.94;72.54
65374;SHT31;52070;53.760;9.678;2022-07-15T08:29:56;15.44;76.14
65374;SHT31;52070;53.760;9.678;2022-07-15T08:32:23;15.16;76.63
65374;SHT31;52070;53.760;9.678;2022-07-15T08:34:51;14.99;77.89
65374;SHT31;52070;53.760;9.678;2022-07-15T08:37:18;14.72;79.33
65374;SHT31;52070;53.760;9.678;2022-07-15T08:39:45;14.71;80.56
65374;SHT31;52070;53.760;9.678;2022-07-15T08:42:13;14.89;81.01
65374;SHT31;52070;53.760;9.678;2022-07-15T08:44:41;14.98;80.95
65374;SHT31;52070;53.760;9.678;2022-07-15T08:47:09;15.16;80.31
65374;SHT31;52070;53.760;9.678;2022-07-15T08:49:38;15.18;79.83
65374;SHT31;52070;53.760;9.678;2022-07-15T08:52:06;15.14;78.12
65374;SHT31;52070;53.760;9.678;2022-07-15T08:54:33;15.29;80.24
65374;SHT31;52070;53.760;9.678;2022-07-15T08:57:00;15.53;79.58
65374;SHT31;52070;53.760;9.678;2022-07-15T08:59:27;15.63;77.51
65374;SHT31;52070;53.760;9.678;2022-07-15T09:01:55;15.57;74.36
65374;SHT31;52070;53.760;9.678;2022-07-15T09:04:22;15.71;76.46
65374;SHT31;52070;53.760;9.678;2022-07-15T09:06:50;15.91;74.96
65374;SHT31;52070;53.760;9.678;2022-07-15T09:09:28;16.01;73.19
65374;SHT31;52070;53.760;9.678;2022-07-15T09:11:58;16.12;73.60
65374;SHT31;52070;53.760;9.678;2022-07-15T09:14:26;16.24;71.47
65374;SHT31;52070;53.760;9.678;2022-07-15T09:17:04;16.33;69.60
65374;SHT31;52070;53.760;9.678;2022-07-15T09:19:56;16.62;72.31
65374;SHT31;52070;53.760;9.678;2022-07-15T09:22:23;16.70;70.84
65374;SHT31;52070;53.760;9.678;2022-07-15T09:25:01;16.94;70.23
65374;SHT31;52070;53.760;9.678;2022-07-15T09:27:29;16.90;65.12
65374;SHT31;52070;53.760;9.678;2022-07-15T09:30:12;16.84;64.10
65374;SHT31;52070;53.760;9.678;2022-07-15T09:32:59;16.65;65.07
65374;SHT31;52070;53.760;9.678;2022-07-15T09:35:45;16.51;65.57
65374;SHT31;52070;53.760;9.678;2022-07-15T09:38:43;16.45;66.41
65374;SHT31;52070;53.760;9.678;2022-07-15T09:41:19;16.59;67.00
65374;SHT31;52070;53.760;9.678;2022-07-15T09:43:50;16.75;67.14
65374;SHT31;52070;53.760;9.678;2022-07-15T09:46:19;16.96;66.49
65374;SHT31;52070;53.760;9.678;2022-07-15T09:48:49;17.21;65.05
65374;SHT31;52070;53.760;9.678;2022-07-15T09:51:17;17.40;64.81
65374;SHT31;52070;53.760;9.678;2022-07-15T09:53:44;17.78;61.85
65374;SHT31;52070;53.760;9.678;2022-07-15T09:56:13;17.89;62.84
65374;SHT31;52070;53.760;9.678;2022-07-15T09:58:42;17.96;61.07
65374;SHT31;52070;53.760;9.678;2022-07-15T10:01:11;17.78;60.58
65374;SHT31;52070;53.760;9.678;2022-07-15T10:03:39;17.71;61.18
65374;SHT31;52070;53.760;9.678;2022-07-15T10:06:09;17.65;61.38
65374;SHT31;52070;53.760;9.678;2022-07-15T10:08:37;17.37;60.68
65374;SHT31;52070;53.760;9.678;2022-07-15T10:11:08;17.48;61.51
65374;SHT31;52070;53.760;9.678;2022-07-15T10:17:07;18.08;61.57
65374;SHT31;52070;53.760;9.678;2022-07-15T10:20:00;18.61;61.25
65374;SHT31;52070;53.760;9.678;2022-07-15T10:22:48;18.57;59.53
65374;SHT31;52070;53.760;9.678;2022-07-15T10:25:29;18.40;60.35
65374;SHT31;52070;53.760;9.678;2022-07-15T10:28:03;18.12;60.35
65374;SHT31;52070;53.760;9.678;2022-07-15T10:30:31;17.96;59.57
65374;SHT31;52070;53.760;9.678;2022-07-15T10:33:14;17.84;59.81
65374;SHT31;52070;53.760;9.678;2022-07-15T10:35:43;17.64;60.11
65374;SHT31;52070;53.760;9.678;2022-07-15T10:38:28;17.74;62.15
65374;SHT31;52070;53.760;9.678;2022-07-15T10:40:56;17.98;61.80
65374;SHT31;52070;53.760;9.678;2022-07-15T10:43:39;18.16;62.32
65374;SHT31;52070;53.760;9.678;2022-07-15T10:46:19;18.16;60.71
65374;SHT31;52070;53.760;9.678;2022-07-15T10:48:47;18.21;61.75
65374;SHT31;52070;53.760;9.678;2022-07-15T10:54:41;18.47;61.58
65374;SHT31;52070;53.760;9.678;2022-07-15T10:57:10;18.68;61.38
65374;SHT31;52070;53.760;9.678;2022-07-15T10:59:47;19.01;61.25
65374;SHT31;52070;53.760;9.678;2022-07-15T11:02:16;19.44;60.07
65374;SHT31;52070;53.760;9.678;2022-07-15T11:04:44;19.78;59.53
65374;SHT31;52070;53.760;9.678;2022-07-15T11:07:24;19.99;57.31
65374;SHT31;52070;53.760;9.678;2022-07-15T11:09:55;19.55;56.76
65374;SHT31;52070;53.760;9.678;2022-07-15T11:12:23;19.18;57.59
65374;SHT31;52070;53.760;9.678;2022-07-15T11:14:53;19.20;59.28
65374;SHT31;52070;53.760;9.678;2022-07-15T11:17:23;19.01;59.76
65374;SHT31;52070;53.760;9.678;2022-07-15T11:19:54;18.94;59.33
65374;SHT31;52070;53.760;9.678;2022-07-15T11:22:23;19.30;58.73
65374;SHT31;52070;53.760;9.678;2022-07-15T11:24:50;19.71;58.34
65374;SHT31;52070;53.760;9.678;2022-07-15T11:27:20;20.08;56.22
65374;SHT31;52070;53.760;9.678;2022-07-15T11:29:50;20.13;55.81
65374;SHT31;52070;53.760;9.678;2022-07-15T11:32:18;20.19;57.06
65374;SHT31;52070;53.760;9.678;2022-07-15T11:34:48;19.83;56.08
65374;SHT31;52070;53.760;9.678;2022-07-15T11:37:16;19.35;57.11
65374;SHT31;52070;53.760;9.678;2022-07-15T11:39:46;18.98;58.83
65374;SHT31;52070;53.760;9.678;2022-07-15T11:42:22;18.66;59.57
65374;SHT31;52070;53.760;9.678;2022-07-15T11:45:08;18.97;59.89
65374;SHT31;52070;53.760;9.678;2022-07-15T11:47:51;18.97;60.60
65374;SHT31;52070;53.760;9.678;2022-07-15T11:50:18;19.15;58.09
65374;SHT31;52070;53.760;9.678;2022-07-15T11:52:45;19.12;58.30
65374;SHT31;52070;53.760;9.678;2022-07-15T11:55:13;19.38;58.38
65374;SHT31;52070;53.760;9.678;2022-07-15T11:57:45;19.66;57.97
65374;SHT31;52070;53.760;9.678;2022-07-15T12:00:13;19.52;58.21
65374;SHT31;52070;53.760;9.678;2022-07-15T12:02:40;19.71;57.63
65374;SHT31;52070;53.760;9.678;2022-07-15T12:05:08;19.39;56.75
65374;SHT31;52070;53.760;9.678;2022-07-15T12:07:43;19.36;56.70
65374;SHT31;52070;53.760;9.678;2022-07-15T12:10:12;19.07;57.44
65374;SHT31;52070;53.760;9.678;2022-07-15T12:12:41;19.50;57.26
65374;SHT31;52070;53.760;9.678;2022-07-15T12:15:10;20.06;55.88
65374;SHT31;52070;53.760;9.678;2022-07-15T12:17:39;20.37;55.16
65374;SHT31;52070;53.760;9.678;2022-07-15T12:20:08;20.54;53.99
65374;SHT31;52070;53.760;9.678;2022-07-15T12:22:35;20.58;52.20
65374;SHT31;52070;53.760;9.678;2022-07-15T12:25:03;20.03;51.27
65374;SHT31;52070;53.760;9.678;2022-07-15T12:27:34;19.89;52.32
65374;SHT31;52070;53.760;9.678;2022-07-15T12:30:03;19.58;53.30
65374;SHT31;52070;53.760;9.678;2022-07-15T12:32:32;19.63;53.82
65374;SHT31;52070;53.760;9.678;2022-07-15T12:35:00;19.73;53.89
65374;SHT31;52070;53.760;9.678;2022-07-15T12:37:46;20.13;54.42
65374;SHT31;52070;53.760;9.678;2022-07-15T12:40:21;20.58;52.76
65374;SHT31;52070;53.760;9.678;2022-07-15T12:42:50;20.70;52.32
65374;SHT31;52070;53.760;9.678;2022-07-15T12:45:19;20.68;52.86
65374;SHT31;52070;53.760;9.678;2022-07-15T12:48:01;20.56;52.26
65374;SHT31;52070;53.760;9.678;2022-07-15T12:50:29;20.53;52.07
65374;SHT31;52070;53.760;9.678;2022-07-15T12:52:57;20.68;51.44
65374;SHT31;52070;53.760;9.678;2022-07-15T12:55:28;20.81;51.60
65374;SHT31;52070;53.760;9.678;2022-07-15T12:58:05;20.92;51.72
65374;SHT31;52070;53.760;9.678;2022-07-15T13:00:33;20.71;53.29
65374;SHT31;52070;53.760;9.678;2022-07-15T13:03:04;20.83;52.75
65374;SHT31;52070;53.760;9.678;2022-07-15T13:05:31;20.99;51.16
65374;SHT31;52070;53.760;9.678;2022-07-15T13:07:59;20.77;52.26
65374;SHT31;52070;53.760;9.678;2022-07-15T13:10:28;20.91;52.76
65374;SHT31;52070;53.760;9.678;2022-07-15T13:12:55;21.14;51.55
65374;SHT31;52070;53.760;9.678;2022-07-15T13:15:22;21.56;51.45
65374;SHT31;52070;53.760;9.678;2022-07-15T13:17:49;22.04;48.94
65374;SHT31;52070;53.760;9.678;2022-07-15T13:20:17;22.23;48.58
65374;SHT31;52070;53.760;9.678;2022-07-15T13:22:45;22.32;48.99
65374;SHT31;52070;53.760;9.678;2022-07-15T13:25:12;21.35;48.68
65374;SHT31;52070;53.760;9.678;2022-07-15T13:27:42;20.53;50.19
65374;SHT31;52070;53.760;9.678;2022-07-15T13:30:10;19.96;52.93
65374;SHT31;52070;53.760;9.678;2022-07-15T13:32:37;20.13;53.12
65374;SHT31;52070;53.760;9.678;2022-07-15T13:35:05;20.29;53.73
65374;SHT31;52070;53.760;9.678;2022-07-15T13:37:34;20.26;51.81
65374;SHT31;52070;53.760;9.678;2022-07-15T13:40:01;20.08;53.08
65374;SHT31;52070;53.760;9.678;2022-07-15T13:42:28;19.86;53.51
65374;SHT31;52070;53.760;9.678;2022-07-15T13:44:55;19.99;52.52
65374;SHT31;52070;53.760;9.678;2022-07-15T13:47:23;19.58;51.96
65374;SHT31;52070;53.760;9.678;2022-07-15T13:49:50;19.48;52.61
65374;SHT31;52070;53.760;9.678;2022-07-15T13:52:42;20.08;52.63
65374;SHT31;52070;53.760;9.678;2022-07-15T13:55:09;20.40;52.20
65374;SHT31;52070;53.760;9.678;2022-07-15T13:57:36;20.50;50.64
65374;SHT31;52070;53.760;9.678;2022-07-15T14:00:05;20.51;50.06
65374;SHT31;52070;53.760;9.678;2022-07-15T14:02:33;20.74;51.99
65374;SHT31;52070;53.760;9.678;2022-07-15T14:05:00;21.17;49.86
65374;SHT31;52070;53.760;9.678;2022-07-15T14:07:28;21.04;47.86
65374;SHT31;52070;53.760;9.678;2022-07-15T14:09:56;20.97;48.53
65374;SHT31;52070;53.760;9.678;2022-07-15T14:12:23;21.18;50.23
65374;SHT31;52070;53.760;9.678;2022-07-15T14:14:50;20.56;49.28
65374;SHT31;52070;53.760;9.678;2022-07-15T14:17:18;20.43;49.18
65374;SHT31;52070;53.760;9.678;2022-07-15T14:19:45;20.02;49.75
65374;SHT31;52070;53.760;9.678;2022-07-15T14:22:12;19.87;49.89
65374;SHT31;52070;53.760;9.678;2022-07-15T14:24:39;20.19;49.47
65374;SHT31;52070;53.760;9.678;2022-07-15T14:27:08;20.48;47.98
65374;SHT31;52070;53.760;9.678;2022-07-15T14:29:35;20.29;49.46
65374;SHT31;52070;53.760;9.678;2022-07-15T14:32:02;20.34;51.39
65374;SHT31;52070;53.760;9.678;2022-07-15T14:34:29;20.33;51.27
65374;SHT31;52070;53.760;9.678;2022-07-15T14:36:56;20.44;50.24
65374;SHT31;52070;53.760;9.678;2022-07-15T14:39:23;20.66;50.22
65374;SHT31;52070;53.760;9.678;2022-07-15T14:41:51;20.67;49.49
65374;SHT31;52070;53.760;9.678;2022-07-15T14:44:19;20.88;50.10
65374;SHT31;52070;53.760;9.678;2022-07-15T14:46:46;20.91;48.96
65374;SHT31;52070;53.760;9.678;2022-07-15T14:49:13;20.70;49.49
65374;SHT31;52070;53.760;9.678;2022-07-15T14:51:40;20.48;50.63
65374;SHT31;52070;53.760;9.678;2022-07-15T14:54:07;19.92;51.95
65374;SHT31;52070;53.760;9.678;2022-07-15T14:56:35;20.02;51.65
65374;SHT31;52070;53.760;9.678;2022-07-15T14:59:02;20.40;53.27
65374;SHT31;52070;53.760;9.678;2022-07-15T15:01:31;20.12;51.64
65374;SHT31;52070;53.760;9.678;2022-07-15T15:03:58;20.26;52.06
65374;SHT31;52070;53.760;9.678;2022-07-15T15:06:25;20.37;52.12
65374;SHT31;52070;53.760;9.678;2022-07-15T15:08:52;20.56;50.90
65374;SHT31;52070;53.760;9.678;2022-07-15T15:11:19;20.27;51.27
65374;SHT31;52070;53.760;9.678;2022-07-15T15:13:46;19.87;52.27
65374;SHT31;52070;53.760;9.678;2022-07-15T15:16:13;19.82;52.97
65374;SHT31;52070;53.760;9.678;2022-07-15T15:18:41;19.83;51.76
65374;SHT31;52070;53.760;9.678;2022-07-15T15:21:08;19.89;53.58
65374;SHT31;52070;53.760;9.678;2022-07-15T15:23:35;20.03;52.11
65374;SHT31;52070;53.760;9.678;2022-07-15T15:26:02;20.03;52.48
65374;SHT31;52070;53.760;9.678;2022-07-15T15:28:48;20.30;52.42
65374;SHT31;52070;53.760;9.678;2022-07-15T15:31:16;20.63;52.70
65374;SHT31;52070;53.760;9.678;2022-07-15T15:33:45;20.90;51.43
65374;SHT31;52070;53.760;9.678;2022-07-15T15:36:12;20.84;50.61
65374;SHT31;52070;53.760;9.678;2022-07-15T15:38:39;21.07;52.24
65374;SHT31;52070;53.760;9.678;2022-07-15T15:41:06;20.83;49.46
65374;SHT31;52070;53.760;9.678;2022-07-15T15:43:33;20.56;51.11
65374;SHT31;52070;53.760;9.678;2022-07-15T15:46:01;20.71;50.87
65374;SHT31;52070;53.760;9.678;2022-07-15T15:48:28;20.94;49.94